createdAt,value
2023-03-13T00:01:13.388Z,4.90
2023-03-13T00:03:40.664Z,5.77
2023-03-13T00:06:07.852Z,5.10
2023-03-13T00:08:35.032Z,6.57
2023-03-13T00:11:05.516Z,3.87
2023-03-13T00:13:32.817Z,6.13
2023-03-13T00:16:00.616Z,4.27
2023-03-13T00:18:28.060Z,6.33
2023-03-13T00:20:59.164Z,4.13
2023-03-13T00:23:26.295Z,5.67
2023-03-13T00:26:04.113Z,5.80
2023-03-13T00:28:32.811Z,4.30
2023-03-13T00:31:03.081Z,6.33
2023-03-13T00:33:30.252Z,4.63
2023-03-13T00:36:01.361Z,4.97
2023-03-13T00:38:29.615Z,7.00
2023-03-13T00:41:16.867Z,5.23
2023-03-13T00:43:45.192Z,5.27
2023-03-13T00:46:13.405Z,4.63
2023-03-13T00:48:40.820Z,4.60
2023-03-13T00:51:08.364Z,4.60
2023-03-13T00:53:35.702Z,5.17
2023-03-13T00:56:04.686Z,4.73
2023-03-13T00:58:32.792Z,4.97
2023-03-13T01:01:07.802Z,4.13
2023-03-13T01:03:35.574Z,5.23
2023-03-13T01:06:03.746Z,5.00
2023-03-13T01:08:31.254Z,6.20
2023-03-13T01:11:02.243Z,4.37
2023-03-13T01:13:29.925Z,4.13
2023-03-13T01:15:57.160Z,4.57
2023-03-13T01:18:24.312Z,4.20
2023-03-13T01:20:51.450Z,4.67
2023-03-13T01:23:18.619Z,4.53
2023-03-13T01:25:45.777Z,4.37
2023-03-13T01:28:12.954Z,3.47
2023-03-13T01:30:40.227Z,4.70
2023-03-13T01:33:07.342Z,3.60
2023-03-13T01:35:34.537Z,4.17
2023-03-13T01:38:01.677Z,4.80
2023-03-13T01:40:28.809Z,2.77
2023-03-13T01:42:58.089Z,3.40
2023-03-13T01:45:44.041Z,2.50
2023-03-13T01:48:11.205Z,3.97
2023-03-13T01:50:38.314Z,3.47
2023-03-13T01:53:05.532Z,3.43
2023-03-13T01:55:33.643Z,3.17
2023-03-13T01:58:00.854Z,2.90
2023-03-13T02:00:29.398Z,3.30
2023-03-13T02:02:58.759Z,2.37
2023-03-13T02:05:27.094Z,3.00
2023-03-13T02:07:54.205Z,3.17
2023-03-13T02:10:22.213Z,2.90
2023-03-13T02:12:50.300Z,2.67
2023-03-13T02:15:19.221Z,2.30
2023-03-13T02:17:47.355Z,3.60
2023-03-13T02:20:15.036Z,3.30
2023-03-13T02:22:42.158Z,2.63
2023-03-13T02:25:09.338Z,3.70
2023-03-13T02:27:36.800Z,2.73
2023-03-13T02:30:04.980Z,2.63
2023-03-13T02:32:33.910Z,3.43
2023-03-13T02:35:05.111Z,3.60
2023-03-13T02:37:33.242Z,4.07
2023-03-13T02:40:04.083Z,2.63
2023-03-13T02:42:32.126Z,2.87
2023-03-13T02:44:59.326Z,2.70
2023-03-13T02:47:26.505Z,2.80
2023-03-13T02:49:53.642Z,3.07
2023-03-13T02:52:25.654Z,2.13
2023-03-13T02:54:56.410Z,2.33
2023-03-13T02:57:23.557Z,3.13
2023-03-13T02:59:50.784Z,2.73
2023-03-13T03:02:17.905Z,2.37
2023-03-13T03:04:45.047Z,3.87
2023-03-13T03:07:12.242Z,3.23
2023-03-13T03:09:39.397Z,3.07
2023-03-13T03:12:06.748Z,3.43
2023-03-13T03:14:33.984Z,2.67
2023-03-13T03:17:01.116Z,3.03
2023-03-13T03:19:28.312Z,3.60
2023-03-13T03:21:55.502Z,3.07
2023-03-13T03:24:22.650Z,2.67
2023-03-13T03:26:49.813Z,4.57
2023-03-13T03:29:16.961Z,2.63
2023-03-13T03:31:44.181Z,3.03
2023-03-13T03:34:11.335Z,3.13
2023-03-13T03:36:38.478Z,4.57
2023-03-13T03:39:05.614Z,2.63
2023-03-13T03:41:32.783Z,3.50
2023-03-13T03:43:59.906Z,3.43
2023-03-13T03:46:27.150Z,3.17
2023-03-13T03:48:54.808Z,2.80
2023-03-13T03:51:22.759Z,2.67
2023-03-13T03:53:49.941Z,3.57
2023-03-13T03:56:17.114Z,2.07
2023-03-13T03:58:44.307Z,2.40
2023-03-13T04:01:11.423Z,2.47
2023-03-13T04:03:38.542Z,2.57
2023-03-13T04:06:07.074Z,1.53
2023-03-13T04:08:34.261Z,2.00
2023-03-13T04:11:02.680Z,2.43
2023-03-13T04:13:29.830Z,2.33
2023-03-13T04:15:56.956Z,1.60
2023-03-13T04:18:24.087Z,1.83
2023-03-13T04:20:51.223Z,1.63
2023-03-13T04:23:18.403Z,4.53
2023-03-13T04:25:45.540Z,1.87
2023-03-13T04:28:12.687Z,3.83
2023-03-13T04:30:39.854Z,1.97
2023-03-13T04:33:07.002Z,2.00
2023-03-13T04:35:34.231Z,2.87
2023-03-13T04:38:02.482Z,2.60
2023-03-13T04:40:29.792Z,3.00
2023-03-13T04:42:56.945Z,4.63
2023-03-13T04:45:24.139Z,2.67
2023-03-13T04:47:51.379Z,3.77
2023-03-13T04:50:18.508Z,4.40
2023-03-13T04:52:46.454Z,3.00
2023-03-13T04:55:14.723Z,3.60
2023-03-13T04:57:42.006Z,3.53
2023-03-13T05:00:11.468Z,3.20
2023-03-13T05:02:38.624Z,4.03
2023-03-13T05:05:05.962Z,3.93
2023-03-13T05:07:33.157Z,2.50
2023-03-13T05:10:00.350Z,5.63
2023-03-13T05:12:27.493Z,7.33
2023-03-13T05:14:54.640Z,4.33
2023-03-13T05:17:21.767Z,4.73
2023-03-13T05:19:48.967Z,5.63
2023-03-13T05:22:16.086Z,9.93
2023-03-13T05:24:43.256Z,8.37
2023-03-13T05:27:10.437Z,12.80
2023-03-13T05:29:37.660Z,5.07
2023-03-13T05:32:04.794Z,25.70
2023-03-13T05:34:31.939Z,6.97
2023-03-13T05:36:59.102Z,25.63
2023-03-13T05:39:26.321Z,36.70
2023-03-13T05:41:53.437Z,10.23
2023-03-13T05:44:20.560Z,32.37
2023-03-13T05:46:47.754Z,7.80
2023-03-13T05:49:15.025Z,28.30
2023-03-13T05:51:42.153Z,49.50
2023-03-13T05:54:09.263Z,17.83
2023-03-13T05:56:36.391Z,11.27
2023-03-13T05:59:03.529Z,49.70
2023-03-13T06:01:30.708Z,130.93
2023-03-13T06:03:57.907Z,46.83
2023-03-13T06:06:25.101Z,37.43
2023-03-13T06:08:54.990Z,48.13
2023-03-13T06:11:22.142Z,58.63
2023-03-13T06:13:49.415Z,31.97
2023-03-13T06:16:16.621Z,23.50
2023-03-13T06:18:43.846Z,61.40
2023-03-13T06:21:11.055Z,19.73
2023-03-13T06:23:38.336Z,131.60
2023-03-13T06:26:05.643Z,112.80
2023-03-13T06:28:32.827Z,139.80
2023-03-13T06:31:03.932Z,194.60
2023-03-13T06:33:31.336Z,152.40
2023-03-13T06:35:58.665Z,133.70
2023-03-13T06:38:25.993Z,45.63
2023-03-13T06:40:53.333Z,92.20
2023-03-13T06:43:20.552Z,103.83
2023-03-13T06:45:47.823Z,39.10
2023-03-13T06:48:15.210Z,71.50
2023-03-13T06:50:42.974Z,25.30
2023-03-13T06:53:20.259Z,47.87
2023-03-13T06:55:48.973Z,94.67
2023-03-13T06:58:30.945Z,111.30
2023-03-13T07:00:58.740Z,131.50
2023-03-13T07:03:26.031Z,111.20
2023-03-13T07:05:57.161Z,30.77
2023-03-13T07:08:25.662Z,25.10
2023-03-13T07:10:53.255Z,22.83
2023-03-13T07:13:21.726Z,19.67
2023-03-13T07:15:48.936Z,10.40
2023-03-13T07:18:16.175Z,13.73
2023-03-13T07:20:43.393Z,11.67
2023-03-13T07:23:10.575Z,11.10
2023-03-13T07:25:37.690Z,12.60
2023-03-13T07:28:04.849Z,14.73
2023-03-13T07:30:31.972Z,13.13
2023-03-13T07:32:59.514Z,12.10
2023-03-13T07:35:26.762Z,12.27
2023-03-13T07:37:53.899Z,13.77
2023-03-13T07:40:21.012Z,9.80
2023-03-13T07:42:48.145Z,11.37
2023-03-13T07:45:15.325Z,11.40
2023-03-13T07:47:42.468Z,14.37
2023-03-13T07:50:10.540Z,14.13
2023-03-13T07:52:37.780Z,9.17
2023-03-13T07:55:05.442Z,10.33
2023-03-13T07:57:32.639Z,9.70
2023-03-13T07:59:59.802Z,9.23
2023-03-13T08:02:27.031Z,8.57
2023-03-13T08:04:54.339Z,9.00
2023-03-13T08:07:21.479Z,7.80
2023-03-13T08:09:49.224Z,6.90
2023-03-13T08:12:16.356Z,6.73
2023-03-13T08:14:43.513Z,9.70
2023-03-13T08:17:10.639Z,7.30
2023-03-13T08:19:38.489Z,7.07
2023-03-13T08:22:05.689Z,7.27
2023-03-13T08:24:33.023Z,8.20
2023-03-13T08:27:00.155Z,7.30
2023-03-13T08:29:27.278Z,7.40
2023-03-13T08:31:55.717Z,5.93
2023-03-13T08:34:22.897Z,6.77
2023-03-13T08:36:50.135Z,7.17
2023-03-13T08:39:18.376Z,6.90
2023-03-13T08:41:45.585Z,7.63
2023-03-13T08:44:13.902Z,7.10
2023-03-13T08:46:41.624Z,6.90
2023-03-13T08:49:09.070Z,8.33
2023-03-13T08:51:36.209Z,9.23
2023-03-13T08:54:04.303Z,7.07
2023-03-13T08:56:32.083Z,7.97
2023-03-13T08:59:00.290Z,6.13
2023-03-13T09:01:29.337Z,9.43
2023-03-13T09:03:57.782Z,7.53
2023-03-13T09:06:25.096Z,8.40
2023-03-13T09:08:52.265Z,7.40
2023-03-13T09:11:21.413Z,8.23
2023-03-13T09:13:49.887Z,7.40
2023-03-13T09:16:21.392Z,8.00
2023-03-13T09:18:48.682Z,6.30
2023-03-13T09:21:17.035Z,7.87
2023-03-13T09:23:44.278Z,7.53
2023-03-13T09:26:11.438Z,7.73
2023-03-13T09:28:38.713Z,7.43
2023-03-13T09:31:10.233Z,8.33
2023-03-13T09:33:37.473Z,7.90
2023-03-13T09:36:04.940Z,7.17
2023-03-13T09:38:32.204Z,7.10
2023-03-13T09:41:06.189Z,7.63
2023-03-13T09:43:42.688Z,9.17
2023-03-13T09:46:30.327Z,7.00
2023-03-13T09:49:05.902Z,7.00
2023-03-13T09:51:38.193Z,6.87
2023-03-13T09:54:10.087Z,7.70
2023-03-13T09:56:43.635Z,6.70
2023-03-13T09:59:43.795Z,7.77
2023-03-13T10:02:19.066Z,7.63
2023-03-13T10:04:49.863Z,4.77
2023-03-13T10:07:17.172Z,8.00
2023-03-13T10:09:44.381Z,8.17
2023-03-13T10:12:19.768Z,4.37
2023-03-13T10:15:02.086Z,6.10
2023-03-13T10:17:37.408Z,6.03
2023-03-13T10:20:13.637Z,3.80
2023-03-13T10:22:42.731Z,4.80
2023-03-13T10:25:12.657Z,5.20
2023-03-13T10:27:50.871Z,6.33
2023-03-13T10:30:26.253Z,7.00
2023-03-13T10:32:55.100Z,5.27
2023-03-13T10:35:26.645Z,5.67
2023-03-13T10:38:01.323Z,3.90
2023-03-13T10:40:29.253Z,2.90
2023-03-13T10:43:04.272Z,2.67
2023-03-13T10:45:36.135Z,2.33
2023-03-13T10:48:23.594Z,3.87
2023-03-13T10:50:57.273Z,2.63
2023-03-13T10:53:24.521Z,2.30
2023-03-13T10:55:55.950Z,1.27
2023-03-13T10:58:26.049Z,1.83
2023-03-13T11:00:53.226Z,2.43
2023-03-13T11:03:23.738Z,1.47
2023-03-13T11:05:58.647Z,1.27
2023-03-13T11:08:30.056Z,2.53
2023-03-13T11:10:57.214Z,1.70
2023-03-13T11:13:43.959Z,1.97
2023-03-13T11:16:11.156Z,1.57
2023-03-13T11:18:38.289Z,2.03
2023-03-13T11:21:17.553Z,4.67
2023-03-13T11:23:48.337Z,2.43
2023-03-13T11:26:33.194Z,2.00
2023-03-13T11:29:03.340Z,1.63
2023-03-13T11:31:33.317Z,2.57
2023-03-13T11:34:12.642Z,2.40
2023-03-13T11:36:44.623Z,0.90
2023-03-13T11:39:25.039Z,1.93
2023-03-13T11:41:57.311Z,2.20
2023-03-13T11:44:31.783Z,1.90
2023-03-13T11:47:03.860Z,1.80
2023-03-13T11:49:30.982Z,1.90
2023-03-13T11:52:16.968Z,1.70
2023-03-13T11:55:02.835Z,3.67
2023-03-13T11:57:37.810Z,4.20
2023-03-13T12:00:06.375Z,2.27
2023-03-13T12:02:40.409Z,3.87
2023-03-13T12:05:09.581Z,1.63
2023-03-13T12:08:03.604Z,2.80
2023-03-13T12:10:33.627Z,1.70
2023-03-13T12:13:03.851Z,3.90
2023-03-13T12:15:33.851Z,3.73
2023-03-13T12:18:03.479Z,1.77
2023-03-13T12:20:33.635Z,3.43
2023-03-13T12:23:00.786Z,2.60
2023-03-13T12:25:39.417Z,2.47
2023-03-13T12:28:19.315Z,1.50
2023-03-13T12:30:49.713Z,3.50
2023-03-13T12:33:21.833Z,1.47
2023-03-13T12:36:11.019Z,2.60
2023-03-13T12:38:58.619Z,2.77
2023-03-13T12:41:31.193Z,1.10
2023-03-13T12:44:08.325Z,1.53
2023-03-13T12:46:38.455Z,1.57
2023-03-13T12:49:13.548Z,2.03
2023-03-13T12:51:40.669Z,0.90
2023-03-13T12:54:16.418Z,3.07
2023-03-13T12:56:52.548Z,2.67
2023-03-13T12:59:29.554Z,3.37
2023-03-13T13:01:57.180Z,2.70
2023-03-13T13:04:25.852Z,2.97
2023-03-13T13:06:53.049Z,5.47
2023-03-13T13:09:24.746Z,9.23
2023-03-13T13:11:52.693Z,15.53
2023-03-13T13:14:19.795Z,33.27
2023-03-13T13:17:16.151Z,33.37
2023-03-13T13:19:43.490Z,102.27
2023-03-13T13:22:29.209Z,74.60
2023-03-13T13:24:57.361Z,51.83
2023-03-13T13:27:47.782Z,27.37
2023-03-13T13:30:17.910Z,221.63
2023-03-13T13:32:46.350Z,167.47
2023-03-13T13:35:13.509Z,239.47
2023-03-13T13:37:41.348Z,210.47
2023-03-13T13:40:17.642Z,259.60
2023-03-13T13:42:52.156Z,387.83
2023-03-13T13:45:32.628Z,222.87
2023-03-13T13:48:17.193Z,316.87
2023-03-13T13:51:07.723Z,152.27
2023-03-13T13:53:43.031Z,35.47
2023-03-13T13:56:32.208Z,130.67
2023-03-13T13:59:00.927Z,28.43
2023-03-13T14:01:28.186Z,37.33
2023-03-13T14:03:59.851Z,25.83
2023-03-13T14:06:32.358Z,24.00
2023-03-13T14:09:09.561Z,25.23
2023-03-13T14:11:38.031Z,24.27
2023-03-13T14:14:18.532Z,27.43
2023-03-13T14:16:46.851Z,24.40
2023-03-13T14:19:37.256Z,23.13
2023-03-13T14:22:06.123Z,31.77
2023-03-13T14:24:33.488Z,27.73
2023-03-13T14:27:01.015Z,29.10
2023-03-13T14:29:28.519Z,28.83
2023-03-13T14:32:00.255Z,26.73
2023-03-13T14:34:31.515Z,26.50
2023-03-13T14:37:16.791Z,28.90
2023-03-13T14:39:45.907Z,21.13
2023-03-13T14:42:14.228Z,28.00
2023-03-13T14:44:43.904Z,29.70
2023-03-13T14:47:32.870Z,29.27
2023-03-13T14:50:20.277Z,29.23
2023-03-13T14:52:50.145Z,24.23
2023-03-13T14:55:23.462Z,30.57
2023-03-13T14:58:07.399Z,23.53
2023-03-13T15:00:34.755Z,32.60
2023-03-13T15:03:21.595Z,32.73
2023-03-13T15:05:50.261Z,33.23
2023-03-13T15:08:17.447Z,30.53
2023-03-13T15:10:44.980Z,28.10
2023-03-13T15:13:25.828Z,28.20
2023-03-13T15:15:53.515Z,26.43
2023-03-13T15:18:22.163Z,29.63
2023-03-13T15:20:50.624Z,31.87
2023-03-13T15:23:17.792Z,28.70
2023-03-13T15:25:45.109Z,31.90
2023-03-13T15:28:16.917Z,29.60
2023-03-13T15:30:44.513Z,28.77
2023-03-13T15:33:15.906Z,29.60
2023-03-13T15:35:43.410Z,39.30
2023-03-13T15:38:15.283Z,32.17
2023-03-13T15:40:42.687Z,28.27
2023-03-13T15:43:10.198Z,29.17
2023-03-13T15:45:38.638Z,32.17
2023-03-13T15:48:15.396Z,36.13
2023-03-13T15:50:42.844Z,27.60
2023-03-13T15:53:20.265Z,28.77
2023-03-13T15:55:48.065Z,29.97
2023-03-13T15:58:15.630Z,25.47
2023-03-13T16:00:43.522Z,31.13
2023-03-13T16:03:15.035Z,30.33
2023-03-13T16:05:42.209Z,28.10
2023-03-13T16:08:16.621Z,42.80
2023-03-13T16:10:48.200Z,32.93
2023-03-13T16:13:15.573Z,24.50
2023-03-13T16:15:43.074Z,28.97
2023-03-13T16:18:13.732Z,29.07
2023-03-13T16:20:40.900Z,27.23
2023-03-13T16:23:08.095Z,28.23
2023-03-13T16:25:35.336Z,35.23
2023-03-13T16:28:02.469Z,33.93
2023-03-13T16:30:33.386Z,26.47
2023-03-13T16:33:00.999Z,27.07
2023-03-13T16:35:29.047Z,27.93
2023-03-13T16:37:57.438Z,30.57
2023-03-13T16:40:28.780Z,32.00
2023-03-13T16:42:55.948Z,29.77
2023-03-13T16:45:23.109Z,29.23
2023-03-13T16:47:50.721Z,38.03
2023-03-13T16:50:18.366Z,35.60
2023-03-13T16:52:45.559Z,38.47
2023-03-13T16:55:12.710Z,31.90
2023-03-13T16:57:39.859Z,26.77
2023-03-13T17:00:27.377Z,30.17
2023-03-13T17:02:55.037Z,31.90
2023-03-13T17:05:22.293Z,24.47
2023-03-13T17:07:50.815Z,31.93
2023-03-13T17:10:19.664Z,28.47
2023-03-13T17:12:46.898Z,31.90
2023-03-13T17:15:14.106Z,45.67
2023-03-13T17:17:41.601Z,27.47
2023-03-13T17:20:14.947Z,28.57
2023-03-13T17:22:42.689Z,31.13
2023-03-13T17:25:10.140Z,25.83
2023-03-13T17:27:37.548Z,18.43
2023-03-13T17:30:13.651Z,28.03
2023-03-13T17:32:40.924Z,29.10
2023-03-13T17:35:08.284Z,32.73
2023-03-13T17:37:36.032Z,25.67
2023-03-13T17:40:05.320Z,33.43
2023-03-13T17:42:32.712Z,23.60
2023-03-13T17:44:59.852Z,38.63
2023-03-13T17:47:27.837Z,38.07
2023-03-13T17:49:55.003Z,62.63
2023-03-13T17:52:22.151Z,49.73
2023-03-13T17:54:49.290Z,104.87
2023-03-13T17:57:17.753Z,37.67
2023-03-13T17:59:45.094Z,42.70
2023-03-13T18:02:13.276Z,34.67
2023-03-13T18:04:40.871Z,80.67
2023-03-13T18:07:34.213Z,62.67
2023-03-13T18:10:01.696Z,68.77
2023-03-13T18:12:28.827Z,102.77
2023-03-13T18:14:55.946Z,69.30
2023-03-13T18:17:24.335Z,35.87
2023-03-13T18:19:51.756Z,111.40
2023-03-13T18:22:21.538Z,38.17
2023-03-13T18:24:49.059Z,65.53
2023-03-13T18:27:17.377Z,75.47
2023-03-13T18:29:45.237Z,46.20
2023-03-13T18:32:16.865Z,45.47
2023-03-13T18:34:44.251Z,35.63
2023-03-13T18:37:29.231Z,42.40
2023-03-13T18:39:56.382Z,26.23
2023-03-13T18:42:23.956Z,32.83
2023-03-13T18:44:51.340Z,31.37
2023-03-13T18:47:19.478Z,40.03
2023-03-13T18:49:48.027Z,63.80
2023-03-13T18:52:15.450Z,85.77
2023-03-13T18:54:44.232Z,26.90
2023-03-13T18:57:15.253Z,37.83
2023-03-13T18:59:42.755Z,48.40
2023-03-13T19:02:14.043Z,53.00
2023-03-13T19:04:41.258Z,41.57
2023-03-13T19:07:15.774Z,46.77
2023-03-13T19:09:44.245Z,28.23
2023-03-13T19:12:15.366Z,27.50
2023-03-13T19:14:42.735Z,28.60
2023-03-13T19:17:16.172Z,20.20
2023-03-13T19:19:43.331Z,31.57
2023-03-13T19:22:13.515Z,48.07
2023-03-13T19:24:40.687Z,47.87
2023-03-13T19:27:07.899Z,33.37
2023-03-13T19:29:36.567Z,43.00
2023-03-13T19:32:06.787Z,38.43
2023-03-13T19:34:34.336Z,34.47
2023-03-13T19:37:01.545Z,29.93
2023-03-13T19:39:28.678Z,34.10
2023-03-13T19:41:58.268Z,31.37
2023-03-13T19:44:25.878Z,31.20
2023-03-13T19:46:54.678Z,27.57
2023-03-13T19:49:22.147Z,42.00
2023-03-13T19:51:49.274Z,53.57
2023-03-13T19:54:16.416Z,32.93
2023-03-13T19:56:45.111Z,33.03
2023-03-13T19:59:20.094Z,34.73
2023-03-13T20:01:47.428Z,34.57
2023-03-13T20:04:15.044Z,44.00
2023-03-13T20:06:42.803Z,36.40
2023-03-13T20:09:11.229Z,38.90
2023-03-13T20:11:38.476Z,35.53
2023-03-13T20:14:05.926Z,38.47
2023-03-13T20:16:35.018Z,38.20
2023-03-13T20:19:02.614Z,45.10
2023-03-13T20:21:31.152Z,45.70
2023-03-13T20:23:58.884Z,47.57
2023-03-13T20:26:26.817Z,41.93
2023-03-13T20:28:54.599Z,50.27
2023-03-13T20:31:23.071Z,50.53
2023-03-13T20:33:50.370Z,53.87
2023-03-13T20:36:19.558Z,53.77
2023-03-13T20:38:46.975Z,57.07
2023-03-13T20:41:14.295Z,43.00
2023-03-13T20:43:41.500Z,47.40
2023-03-13T20:46:09.015Z,47.80
2023-03-13T20:48:38.973Z,38.10
2023-03-13T20:51:06.840Z,37.13
2023-03-13T20:53:36.104Z,40.53
2023-03-13T20:56:05.358Z,56.10
2023-03-13T20:58:33.672Z,37.93
2023-03-13T21:01:01.305Z,50.70
2023-03-13T21:03:28.901Z,41.50
2023-03-13T21:05:56.060Z,55.07
2023-03-13T21:08:23.539Z,50.83
2023-03-13T21:10:50.770Z,42.70
2023-03-13T21:13:17.926Z,43.03
2023-03-13T21:15:45.049Z,45.97
2023-03-13T21:18:12.271Z,50.97
2023-03-13T21:20:39.463Z,57.53
2023-03-13T21:23:06.594Z,55.93
2023-03-13T21:25:33.900Z,53.83
2023-03-13T21:28:01.101Z,49.43
2023-03-13T21:30:28.269Z,57.10
2023-03-13T21:32:55.431Z,55.57
2023-03-13T21:35:23.347Z,55.53
2023-03-13T21:37:50.525Z,70.00
2023-03-13T21:40:17.770Z,49.03
2023-03-13T21:42:44.919Z,63.13
2023-03-13T21:45:12.279Z,62.63
2023-03-13T21:47:40.417Z,65.67
2023-03-13T21:50:09.917Z,51.57
2023-03-13T21:52:40.872Z,59.27
2023-03-13T21:55:10.326Z,57.03
2023-03-13T21:57:37.478Z,58.93
2023-03-13T22:00:07.989Z,52.20
2023-03-13T22:02:35.962Z,49.60
2023-03-13T22:05:03.806Z,57.20
2023-03-13T22:07:31.005Z,62.30
2023-03-13T22:09:58.488Z,59.43
2023-03-13T22:12:25.967Z,49.53
2023-03-13T22:14:55.635Z,57.70
2023-03-13T22:17:23.347Z,58.30
2023-03-13T22:19:50.575Z,48.43
2023-03-13T22:22:19.941Z,53.17
2023-03-13T22:24:47.075Z,28.57
2023-03-13T22:27:15.430Z,48.33
2023-03-13T22:29:42.599Z,59.93
2023-03-13T22:32:09.923Z,49.67
2023-03-13T22:34:37.126Z,55.97
2023-03-13T22:37:04.393Z,49.83
2023-03-13T22:39:31.619Z,59.07
2023-03-13T22:41:58.753Z,52.53
2023-03-13T22:44:25.945Z,36.03
2023-03-13T22:46:53.060Z,39.30
2023-03-13T22:49:20.191Z,51.90
2023-03-13T22:51:47.337Z,42.83
2023-03-13T22:54:14.572Z,43.27
2023-03-13T22:56:41.755Z,55.43
2023-03-13T22:59:08.953Z,41.47
2023-03-13T23:01:36.194Z,41.63
2023-03-13T23:04:03.434Z,41.43
2023-03-13T23:06:30.633Z,50.70
2023-03-13T23:08:57.777Z,38.40
2023-03-13T23:11:24.923Z,35.97
2023-03-13T23:13:52.125Z,41.17
2023-03-13T23:16:19.295Z,39.40
2023-03-13T23:18:46.444Z,35.23
2023-03-13T23:21:14.779Z,26.60
2023-03-13T23:23:42.112Z,41.00
2023-03-13T23:26:11.209Z,37.80
2023-03-13T23:28:38.956Z,33.60
2023-03-13T23:31:10.545Z,34.07
2023-03-13T23:33:37.711Z,40.37
2023-03-13T23:36:05.894Z,37.27
2023-03-13T23:38:33.117Z,35.80
2023-03-13T23:41:00.281Z,35.33
2023-03-13T23:43:27.405Z,38.53
2023-03-13T23:45:54.642Z,32.67
2023-03-13T23:48:21.764Z,35.53
2023-03-13T23:50:48.890Z,36.07
2023-03-13T23:53:16.079Z,33.17
2023-03-13T23:55:43.203Z,35.37
2023-03-13T23:58:10.436Z,39.93
